sensor_id;sensor_type;location;lat;lon;timestamp;P1;durP1;ratioP1;P2;durP2;ratioP2
73168;SDS011;61379;59.732;30.468;2023-04-28T00:02:06;7.10;;;6.50;;
73168;SDS011;61379;59.732;30.468;2023-04-28T00:04:33;7.43;;;6.88;;
73168;SDS011;61379;59.732;30.468;2023-04-28T00:07:00;9.05;;;7.18;;
73168;SDS011;61379;59.732;30.468;2023-04-28T00:09:27;8.05;;;7.50;;
73168;SDS011;61379;59.732;30.468;2023-04-28T00:11:53;7.75;;;7.18;;
73168;SDS011;61379;59.732;30.468;2023-04-28T00:14:22;7.60;;;7.03;;
73168;SDS011;61379;59.732;30.468;2023-04-28T00:16:48;7.63;;;7.13;;
73168;SDS011;61379;59.732;30.468;2023-04-28T00:19:15;7.88;;;7.28;;
73168;SDS011;61379;59.732;30.468;2023-04-28T00:21:42;8.80;;;8.05;;
73168;SDS011;61379;59.732;30.468;2023-04-28T00:24:08;8.43;;;7.60;;
73168;SDS011;61379;59.732;30.468;2023-04-28T00:26:35;8.88;;;8.18;;
73168;SDS011;61379;59.732;30.468;2023-04-28T00:29:02;8.35;;;7.65;;
73168;SDS011;61379;59.732;30.468;2023-04-28T00:31:30;8.35;;;7.75;;
73168;SDS011;61379;59.732;30.468;2023-04-28T00:33:57;7.72;;;7.22;;
73168;SDS011;61379;59.732;30.468;2023-04-28T00:36:23;7.55;;;6.97;;
73168;SDS011;61379;59.732;30.468;2023-04-28T00:38:51;7.60;;;7.10;;
73168;SDS011;61379;59.732;30.468;2023-04-28T00:41:17;7.60;;;7.00;;
73168;SDS011;61379;59.732;30.468;2023-04-28T00:43:44;8.82;;;8.13;;
73168;SDS011;61379;59.732;30.468;2023-04-28T00:46:12;8.38;;;7.78;;
73168;SDS011;61379;59.732;30.468;2023-04-28T00:48:44;9.60;;;8.90;;
73168;SDS011;61379;59.732;30.468;2023-04-28T00:51:11;10.00;;;9.07;;
73168;SDS011;61379;59.732;30.468;2023-04-28T00:53:38;10.38;;;9.43;;
73168;SDS011;61379;59.732;30.468;2023-04-28T00:56:06;10.52;;;9.38;;
73168;SDS011;61379;59.732;30.468;2023-04-28T00:58:33;10.15;;;9.35;;
73168;SDS011;61379;59.732;30.468;2023-04-28T01:01:01;11.43;;;10.43;;
73168;SDS011;61379;59.732;30.468;2023-04-28T01:03:27;9.63;;;8.63;;
73168;SDS011;61379;59.732;30.468;2023-04-28T01:05:56;11.70;;;10.60;;
73168;SDS011;61379;59.732;30.468;2023-04-28T01:08:22;14.98;;;11.40;;
73168;SDS011;61379;59.732;30.468;2023-04-28T01:10:49;13.32;;;11.50;;
73168;SDS011;61379;59.732;30.468;2023-04-28T01:13:16;13.35;;;11.40;;
73168;SDS011;61379;59.732;30.468;2023-04-28T01:15:43;12.95;;;11.70;;
73168;SDS011;61379;59.732;30.468;2023-04-28T01:18:10;11.73;;;10.70;;
73168;SDS011;61379;59.732;30.468;2023-04-28T01:20:37;12.52;;;11.23;;
73168;SDS011;61379;59.732;30.468;2023-04-28T01:23:05;10.77;;;9.82;;
73168;SDS011;61379;59.732;30.468;2023-04-28T01:25:38;11.65;;;10.40;;
73168;SDS011;61379;59.732;30.468;2023-04-28T01:28:04;11.85;;;10.90;;
73168;SDS011;61379;59.732;30.468;2023-04-28T01:30:31;10.30;;;9.32;;
73168;SDS011;61379;59.732;30.468;2023-04-28T01:32:58;10.13;;;9.05;;
73168;SDS011;61379;59.732;30.468;2023-04-28T01:35:25;11.25;;;10.02;;
73168;SDS011;61379;59.732;30.468;2023-04-28T01:37:51;10.77;;;9.60;;
73168;SDS011;61379;59.732;30.468;2023-04-28T01:40:18;11.68;;;10.68;;
73168;SDS011;61379;59.732;30.468;2023-04-28T01:42:48;11.77;;;10.57;;
73168;SDS011;61379;59.732;30.468;2023-04-28T01:45:15;12.10;;;10.80;;
73168;SDS011;61379;59.732;30.468;2023-04-28T01:47:42;11.75;;;10.60;;
73168;SDS011;61379;59.732;30.468;2023-04-28T01:50:09;11.18;;;10.23;;
73168;SDS011;61379;59.732;30.468;2023-04-28T01:52:35;11.40;;;10.35;;
73168;SDS011;61379;59.732;30.468;2023-04-28T01:55:02;11.50;;;10.40;;
73168;SDS011;61379;59.732;30.468;2023-04-28T01:57:30;11.57;;;10.57;;
73168;SDS011;61379;59.732;30.468;2023-04-28T02:00:00;11.02;;;9.93;;
73168;SDS011;61379;59.732;30.468;2023-04-28T02:02:32;10.52;;;9.52;;
73168;SDS011;61379;59.732;30.468;2023-04-28T02:04:58;9.98;;;9.18;;
73168;SDS011;61379;59.732;30.468;2023-04-28T02:07:25;10.48;;;9.57;;
73168;SDS011;61379;59.732;30.468;2023-04-28T02:09:52;10.10;;;9.20;;
73168;SDS011;61379;59.732;30.468;2023-04-28T02:12:19;8.75;;;8.05;;
73168;SDS011;61379;59.732;30.468;2023-04-28T02:14:45;8.80;;;8.02;;
73168;SDS011;61379;59.732;30.468;2023-04-28T02:17:13;8.93;;;8.20;;
73168;SDS011;61379;59.732;30.468;2023-04-28T02:19:40;9.13;;;8.43;;
73168;SDS011;61379;59.732;30.468;2023-04-28T02:22:07;9.27;;;8.45;;
73168;SDS011;61379;59.732;30.468;2023-04-28T02:24:34;8.10;;;7.30;;
73168;SDS011;61379;59.732;30.468;2023-04-28T02:27:02;8.43;;;7.82;;
73168;SDS011;61379;59.732;30.468;2023-04-28T02:29:29;8.23;;;7.55;;
73168;SDS011;61379;59.732;30.468;2023-04-28T02:31:56;8.10;;;7.45;;
73168;SDS011;61379;59.732;30.468;2023-04-28T02:34:24;8.20;;;7.50;;
73168;SDS011;61379;59.732;30.468;2023-04-28T02:36:51;8.35;;;7.85;;
73168;SDS011;61379;59.732;30.468;2023-04-28T02:39:17;8.93;;;8.23;;
73168;SDS011;61379;59.732;30.468;2023-04-28T02:41:46;8.68;;;7.55;;
73168;SDS011;61379;59.732;30.468;2023-04-28T02:44:12;9.00;;;8.02;;
73168;SDS011;61379;59.732;30.468;2023-04-28T02:46:39;8.35;;;7.70;;
73168;SDS011;61379;59.732;30.468;2023-04-28T02:49:06;9.00;;;7.68;;
73168;SDS011;61379;59.732;30.468;2023-04-28T02:51:34;7.57;;;7.07;;
73168;SDS011;61379;59.732;30.468;2023-04-28T02:54:01;9.15;;;8.07;;
73168;SDS011;61379;59.732;30.468;2023-04-28T02:56:27;8.15;;;7.60;;
73168;SDS011;61379;59.732;30.468;2023-04-28T02:58:55;8.75;;;8.02;;
73168;SDS011;61379;59.732;30.468;2023-04-28T03:01:22;8.02;;;7.38;;
73168;SDS011;61379;59.732;30.468;2023-04-28T03:03:48;8.45;;;7.78;;
73168;SDS011;61379;59.732;30.468;2023-04-28T03:06:15;13.95;;;9.43;;
73168;SDS011;61379;59.732;30.468;2023-04-28T03:08:43;8.50;;;7.90;;
73168;SDS011;61379;59.732;30.468;2023-04-28T03:11:10;8.60;;;7.95;;
73168;SDS011;61379;59.732;30.468;2023-04-28T03:13:37;7.60;;;7.20;;
73168;SDS011;61379;59.732;30.468;2023-04-28T03:16:04;8.35;;;7.75;;
73168;SDS011;61379;59.732;30.468;2023-04-28T03:18:32;8.48;;;7.80;;
73168;SDS011;61379;59.732;30.468;2023-04-28T03:20:58;8.77;;;8.10;;
73168;SDS011;61379;59.732;30.468;2023-04-28T03:23:25;8.25;;;7.65;;
73168;SDS011;61379;59.732;30.468;2023-04-28T03:25:54;9.27;;;8.45;;
73168;SDS011;61379;59.732;30.468;2023-04-28T03:28:20;8.68;;;7.88;;
73168;SDS011;61379;59.732;30.468;2023-04-28T03:30:47;10.15;;;9.45;;
73168;SDS011;61379;59.732;30.468;2023-04-28T03:33:14;10.70;;;8.48;;
73168;SDS011;61379;59.732;30.468;2023-04-28T03:35:41;9.75;;;9.15;;
73168;SDS011;61379;59.732;30.468;2023-04-28T03:38:08;9.32;;;8.68;;
73168;SDS011;61379;59.732;30.468;2023-04-28T03:40:34;9.63;;;8.82;;
73168;SDS011;61379;59.732;30.468;2023-04-28T03:43:02;10.23;;;9.23;;
73168;SDS011;61379;59.732;30.468;2023-04-28T03:45:29;8.40;;;7.80;;
73168;SDS011;61379;59.732;30.468;2023-04-28T03:47:56;8.43;;;7.75;;
73168;SDS011;61379;59.732;30.468;2023-04-28T03:50:23;8.77;;;7.78;;
73168;SDS011;61379;59.732;30.468;2023-04-28T03:52:50;8.35;;;7.70;;
73168;SDS011;61379;59.732;30.468;2023-04-28T03:55:16;8.40;;;7.72;;
73168;SDS011;61379;59.732;30.468;2023-04-28T03:57:43;8.57;;;7.88;;
73168;SDS011;61379;59.732;30.468;2023-04-28T04:00:12;8.43;;;7.93;;
73168;SDS011;61379;59.732;30.468;2023-04-28T04:02:39;10.98;;;8.80;;
73168;SDS011;61379;59.732;30.468;2023-04-28T04:05:06;8.77;;;8.13;;
73168;SDS011;61379;59.732;30.468;2023-04-28T04:07:32;8.10;;;7.50;;
73168;SDS011;61379;59.732;30.468;2023-04-28T04:09:59;9.57;;;8.50;;
73168;SDS011;61379;59.732;30.468;2023-04-28T04:12:26;7.90;;;7.10;;
73168;SDS011;61379;59.732;30.468;2023-04-28T04:14:53;7.93;;;7.20;;
73168;SDS011;61379;59.732;30.468;2023-04-28T04:17:21;8.07;;;7.38;;
73168;SDS011;61379;59.732;30.468;2023-04-28T04:19:48;7.72;;;7.00;;
73168;SDS011;61379;59.732;30.468;2023-04-28T04:22:14;7.78;;;6.70;;
73168;SDS011;61379;59.732;30.468;2023-04-28T04:24:41;7.32;;;6.63;;
73168;SDS011;61379;59.732;30.468;2023-04-28T04:27:08;9.23;;;8.50;;
73168;SDS011;61379;59.732;30.468;2023-04-28T04:29:34;9.23;;;7.28;;
73168;SDS011;61379;59.732;30.468;2023-04-28T04:32:01;7.82;;;7.22;;
73168;SDS011;61379;59.732;30.468;2023-04-28T04:34:29;12.75;;;8.95;;
73168;SDS011;61379;59.732;30.468;2023-04-28T04:36:56;8.35;;;7.75;;
73168;SDS011;61379;59.732;30.468;2023-04-28T04:39:23;8.65;;;7.97;;
73168;SDS011;61379;59.732;30.468;2023-04-28T04:41:49;9.10;;;8.32;;
73168;SDS011;61379;59.732;30.468;2023-04-28T04:44:16;9.30;;;8.50;;
73168;SDS011;61379;59.732;30.468;2023-04-28T04:46:43;8.32;;;7.53;;
73168;SDS011;61379;59.732;30.468;2023-04-28T04:49:10;9.50;;;7.85;;
73168;SDS011;61379;59.732;30.468;2023-04-28T04:51:38;9.10;;;8.20;;
73168;SDS011;61379;59.732;30.468;2023-04-28T04:54:05;8.13;;;7.25;;
73168;SDS011;61379;59.732;30.468;2023-04-28T04:56:31;10.35;;;7.93;;
73168;SDS011;61379;59.732;30.468;2023-04-28T04:58:58;10.88;;;8.18;;
73168;SDS011;61379;59.732;30.468;2023-04-28T05:01:25;8.52;;;7.63;;
73168;SDS011;61379;59.732;30.468;2023-04-28T05:03:52;8.85;;;8.05;;
73168;SDS011;61379;59.732;30.468;2023-04-28T05:06:18;11.43;;;7.57;;
73168;SDS011;61379;59.732;30.468;2023-04-28T05:08:47;8.02;;;7.43;;
73168;SDS011;61379;59.732;30.468;2023-04-28T05:11:13;10.52;;;9.32;;
73168;SDS011;61379;59.732;30.468;2023-04-28T05:13:41;8.57;;;7.78;;
73168;SDS011;61379;59.732;30.468;2023-04-28T05:16:07;8.57;;;7.82;;
73168;SDS011;61379;59.732;30.468;2023-04-28T05:18:34;7.75;;;7.15;;
73168;SDS011;61379;59.732;30.468;2023-04-28T05:21:01;7.38;;;6.78;;
73168;SDS011;61379;59.732;30.468;2023-04-28T05:23:28;11.60;;;8.80;;
73168;SDS011;61379;59.732;30.468;2023-04-28T05:25:56;10.50;;;9.70;;
73168;SDS011;61379;59.732;30.468;2023-04-28T05:28:23;8.73;;;7.93;;
73168;SDS011;61379;59.732;30.468;2023-04-28T05:30:49;9.15;;;8.25;;
73168;SDS011;61379;59.732;30.468;2023-04-28T05:33:16;7.93;;;7.32;;
73168;SDS011;61379;59.732;30.468;2023-04-28T05:35:43;8.90;;;8.00;;
73168;SDS011;61379;59.732;30.468;2023-04-28T05:38:10;8.45;;;7.65;;
73168;SDS011;61379;59.732;30.468;2023-04-28T05:40:36;11.50;;;8.75;;
73168;SDS011;61379;59.732;30.468;2023-04-28T05:43:05;8.57;;;7.85;;
73168;SDS011;61379;59.732;30.468;2023-04-28T05:45:31;10.32;;;8.82;;
73168;SDS011;61379;59.732;30.468;2023-04-28T05:47:58;9.68;;;8.32;;
73168;SDS011;61379;59.732;30.468;2023-04-28T05:50:25;9.50;;;8.48;;
73168;SDS011;61379;59.732;30.468;2023-04-28T05:52:52;8.98;;;8.25;;
73168;SDS011;61379;59.732;30.468;2023-04-28T05:55:18;8.75;;;7.95;;
73168;SDS011;61379;59.732;30.468;2023-04-28T05:57:46;9.52;;;8.52;;
73168;SDS011;61379;59.732;30.468;2023-04-28T06:00:15;8.73;;;7.95;;
73168;SDS011;61379;59.732;30.468;2023-04-28T06:02:41;8.95;;;8.05;;
73168;SDS011;61379;59.732;30.468;2023-04-28T06:05:08;9.75;;;7.82;;
73168;SDS011;61379;59.732;30.468;2023-04-28T06:07:35;8.68;;;7.90;;
73168;SDS011;61379;59.732;30.468;2023-04-28T06:10:02;7.38;;;6.68;;
73168;SDS011;61379;59.732;30.468;2023-04-28T06:12:30;12.00;;;8.80;;
73168;SDS011;61379;59.732;30.468;2023-04-28T06:14:56;9.18;;;8.15;;
73168;SDS011;61379;59.732;30.468;2023-04-28T06:17:25;10.10;;;8.38;;
73168;SDS011;61379;59.732;30.468;2023-04-28T06:19:51;9.45;;;8.27;;
73168;SDS011;61379;59.732;30.468;2023-04-28T06:22:18;14.80;;;10.80;;
73168;SDS011;61379;59.732;30.468;2023-04-28T06:24:45;15.95;;;14.27;;
73168;SDS011;61379;59.732;30.468;2023-04-28T06:27:12;10.50;;;9.50;;
73168;SDS011;61379;59.732;30.468;2023-04-28T06:29:39;9.77;;;8.88;;
73168;SDS011;61379;59.732;30.468;2023-04-28T06:32:05;11.45;;;10.38;;
73168;SDS011;61379;59.732;30.468;2023-04-28T06:34:34;9.45;;;8.52;;
73168;SDS011;61379;59.732;30.468;2023-04-28T06:37:01;13.02;;;9.20;;
73168;SDS011;61379;59.732;30.468;2023-04-28T06:39:27;11.45;;;7.93;;
73168;SDS011;61379;59.732;30.468;2023-04-28T06:41:54;8.75;;;8.02;;
73168;SDS011;61379;59.732;30.468;2023-04-28T06:44:21;10.10;;;9.20;;
73168;SDS011;61379;59.732;30.468;2023-04-28T06:46:48;12.13;;;8.10;;
73168;SDS011;61379;59.732;30.468;2023-04-28T06:49:15;9.63;;;8.60;;
73168;SDS011;61379;59.732;30.468;2023-04-28T06:51:43;10.38;;;9.00;;
73168;SDS011;61379;59.732;30.468;2023-04-28T06:54:10;11.73;;;10.52;;
73168;SDS011;61379;59.732;30.468;2023-04-28T06:56:37;16.02;;;14.32;;
73168;SDS011;61379;59.732;30.468;2023-04-28T06:59:04;14.73;;;11.38;;
73168;SDS011;61379;59.732;30.468;2023-04-28T07:01:31;9.98;;;8.30;;
73168;SDS011;61379;59.732;30.468;2023-04-28T07:03:58;9.82;;;8.80;;
73168;SDS011;61379;59.732;30.468;2023-04-28T07:06:24;9.70;;;8.68;;
73168;SDS011;61379;59.732;30.468;2023-04-28T07:08:54;9.95;;;8.32;;
73168;SDS011;61379;59.732;30.468;2023-04-28T07:11:21;9.13;;;8.32;;
73168;SDS011;61379;59.732;30.468;2023-04-28T07:13:48;8.95;;;8.02;;
73168;SDS011;61379;59.732;30.468;2023-04-28T07:16:16;10.05;;;8.30;;
73168;SDS011;61379;59.732;30.468;2023-04-28T07:18:43;9.20;;;7.70;;
73168;SDS011;61379;59.732;30.468;2023-04-28T07:21:10;9.10;;;8.40;;
73168;SDS011;61379;59.732;30.468;2023-04-28T07:23:36;9.25;;;8.27;;
73168;SDS011;61379;59.732;30.468;2023-04-28T07:26:06;10.82;;;9.82;;
73168;SDS011;61379;59.732;30.468;2023-04-28T07:28:33;8.85;;;8.05;;
73168;SDS011;61379;59.732;30.468;2023-04-28T07:30:59;9.43;;;8.63;;
73168;SDS011;61379;59.732;30.468;2023-04-28T07:33:26;9.60;;;8.65;;
73168;SDS011;61379;59.732;30.468;2023-04-28T07:35:53;10.90;;;8.65;;
73168;SDS011;61379;59.732;30.468;2023-04-28T07:38:20;9.77;;;8.80;;
73168;SDS011;61379;59.732;30.468;2023-04-28T07:40:47;9.07;;;8.27;;
73168;SDS011;61379;59.732;30.468;2023-04-28T07:43:15;9.05;;;8.15;;
73168;SDS011;61379;59.732;30.468;2023-04-28T07:45:41;9.93;;;9.13;;
73168;SDS011;61379;59.732;30.468;2023-04-28T07:48:10;9.80;;;7.75;;
73168;SDS011;61379;59.732;30.468;2023-04-28T07:50:36;10.60;;;8.45;;
73168;SDS011;61379;59.732;30.468;2023-04-28T07:53:03;8.98;;;8.07;;
73168;SDS011;61379;59.732;30.468;2023-04-28T07:55:30;9.02;;;8.23;;
73168;SDS011;61379;59.732;30.468;2023-04-28T07:57:56;8.70;;;7.93;;
73168;SDS011;61379;59.732;30.468;2023-04-28T08:00:25;9.40;;;8.60;;
73168;SDS011;61379;59.732;30.468;2023-04-28T08:02:52;9.40;;;8.60;;
73168;SDS011;61379;59.732;30.468;2023-04-28T08:05:19;9.90;;;8.90;;
73168;SDS011;61379;59.732;30.468;2023-04-28T08:07:45;10.18;;;8.40;;
73168;SDS011;61379;59.732;30.468;2023-04-28T08:10:12;8.82;;;8.13;;
73168;SDS011;61379;59.732;30.468;2023-04-28T08:12:39;8.68;;;7.93;;
73168;SDS011;61379;59.732;30.468;2023-04-28T08:15:08;8.95;;;8.18;;
73168;SDS011;61379;59.732;30.468;2023-04-28T08:20:03;9.30;;;8.45;;
73168;SDS011;61379;59.732;30.468;2023-04-28T08:22:33;9.98;;;9.18;;
73168;SDS011;61379;59.732;30.468;2023-04-28T08:24:59;8.98;;;8.25;;
73168;SDS011;61379;59.732;30.468;2023-04-28T08:27:26;11.25;;;8.57;;
73168;SDS011;61379;59.732;30.468;2023-04-28T08:29:53;8.35;;;7.65;;
73168;SDS011;61379;59.732;30.468;2023-04-28T08:32:20;8.43;;;7.65;;
73168;SDS011;61379;59.732;30.468;2023-04-28T08:34:47;8.45;;;7.85;;
73168;SDS011;61379;59.732;30.468;2023-04-28T08:37:15;8.35;;;7.43;;
73168;SDS011;61379;59.732;30.468;2023-04-28T08:39:42;8.98;;;8.20;;
73168;SDS011;61379;59.732;30.468;2023-04-28T08:42:09;7.97;;;7.22;;
73168;SDS011;61379;59.732;30.468;2023-04-28T08:44:36;8.20;;;7.60;;
73168;SDS011;61379;59.732;30.468;2023-04-28T08:47:04;10.43;;;9.45;;
73168;SDS011;61379;59.732;30.468;2023-04-28T08:49:36;7.90;;;7.30;;
73168;SDS011;61379;59.732;30.468;2023-04-28T08:52:05;7.95;;;7.25;;
73168;SDS011;61379;59.732;30.468;2023-04-28T08:54:37;7.78;;;7.18;;
73168;SDS011;61379;59.732;30.468;2023-04-28T08:57:03;7.70;;;6.90;;
73168;SDS011;61379;59.732;30.468;2023-04-28T08:59:33;8.57;;;7.47;;
73168;SDS011;61379;59.732;30.468;2023-04-28T09:02:00;9.52;;;7.32;;
73168;SDS011;61379;59.732;30.468;2023-04-28T09:04:27;8.00;;;7.13;;
73168;SDS011;61379;59.732;30.468;2023-04-28T09:06:54;9.02;;;6.97;;
73168;SDS011;61379;59.732;30.468;2023-04-28T09:09:20;7.60;;;7.00;;
73168;SDS011;61379;59.732;30.468;2023-04-28T09:11:52;8.10;;;7.30;;
73168;SDS011;61379;59.732;30.468;2023-04-28T09:14:19;7.85;;;7.18;;
73168;SDS011;61379;59.732;30.468;2023-04-28T09:16:46;7.68;;;6.97;;
73168;SDS011;61379;59.732;30.468;2023-04-28T09:19:13;7.53;;;6.78;;
73168;SDS011;61379;59.732;30.468;2023-04-28T09:21:46;8.02;;;7.32;;
73168;SDS011;61379;59.732;30.468;2023-04-28T09:24:27;7.80;;;7.18;;
73168;SDS011;61379;59.732;30.468;2023-04-28T09:26:55;7.60;;;6.85;;
73168;SDS011;61379;59.732;30.468;2023-04-28T09:29:22;7.88;;;6.80;;
73168;SDS011;61379;59.732;30.468;2023-04-28T09:31:48;8.32;;;7.53;;
73168;SDS011;61379;59.732;30.468;2023-04-28T09:34:15;7.85;;;7.25;;
73168;SDS011;61379;59.732;30.468;2023-04-28T09:36:42;8.52;;;7.47;;
73168;SDS011;61379;59.732;30.468;2023-04-28T09:39:09;7.97;;;7.38;;
73168;SDS011;61379;59.732;30.468;2023-04-28T09:41:36;8.25;;;7.45;;
73168;SDS011;61379;59.732;30.468;2023-04-28T09:44:13;8.98;;;7.10;;
73168;SDS011;61379;59.732;30.468;2023-04-28T09:46:41;7.93;;;7.28;;
73168;SDS011;61379;59.732;30.468;2023-04-28T09:49:09;7.05;;;6.45;;
73168;SDS011;61379;59.732;30.468;2023-04-28T09:51:35;8.77;;;6.32;;
73168;SDS011;61379;59.732;30.468;2023-04-28T09:54:02;7.15;;;6.10;;
73168;SDS011;61379;59.732;30.468;2023-04-28T09:56:30;7.82;;;7.00;;
73168;SDS011;61379;59.732;30.468;2023-04-28T09:58:57;6.78;;;6.15;;
73168;SDS011;61379;59.732;30.468;2023-04-28T10:01:26;7.50;;;6.90;;
73168;SDS011;61379;59.732;30.468;2023-04-28T10:03:53;7.88;;;7.15;;
73168;SDS011;61379;59.732;30.468;2023-04-28T10:06:20;7.53;;;6.72;;
73168;SDS011;61379;59.732;30.468;2023-04-28T10:08:47;9.13;;;6.40;;
73168;SDS011;61379;59.732;30.468;2023-04-28T10:11:14;8.10;;;7.43;;
73168;SDS011;61379;59.732;30.468;2023-04-28T10:13:41;10.07;;;7.63;;
73168;SDS011;61379;59.732;30.468;2023-04-28T10:16:09;7.75;;;6.95;;
73168;SDS011;61379;59.732;30.468;2023-04-28T10:18:37;7.63;;;6.47;;
73168;SDS011;61379;59.732;30.468;2023-04-28T10:21:04;8.43;;;7.82;;
73168;SDS011;61379;59.732;30.468;2023-04-28T10:26:35;7.97;;;6.60;;
73168;SDS011;61379;59.732;30.468;2023-04-28T10:29:21;6.90;;;6.32;;
73168;SDS011;61379;59.732;30.468;2023-04-28T10:34:31;7.80;;;6.78;;
73168;SDS011;61379;59.732;30.468;2023-04-28T10:36:58;6.82;;;6.10;;
73168;SDS011;61379;59.732;30.468;2023-04-28T10:39:26;6.65;;;6.00;;
73168;SDS011;61379;59.732;30.468;2023-04-28T10:41:53;6.28;;;5.78;;
73168;SDS011;61379;59.732;30.468;2023-04-28T10:47:06;8.52;;;5.82;;
73168;SDS011;61379;59.732;30.468;2023-04-28T11:00:33;8.82;;;5.93;;
73168;SDS011;61379;59.732;30.468;2023-04-28T11:03:00;6.03;;;5.60;;
73168;SDS011;61379;59.732;30.468;2023-04-28T11:05:26;7.25;;;6.22;;
73168;SDS011;61379;59.732;30.468;2023-04-28T11:13:25;6.80;;;6.25;;
73168;SDS011;61379;59.732;30.468;2023-04-28T11:16:02;7.97;;;6.35;;
73168;SDS011;61379;59.732;30.468;2023-04-28T11:18:29;6.40;;;6.00;;
73168;SDS011;61379;59.732;30.468;2023-04-28T11:20:58;8.23;;;6.20;;
73168;SDS011;61379;59.732;30.468;2023-04-28T11:23:27;7.28;;;6.78;;
73168;SDS011;61379;59.732;30.468;2023-04-28T11:25:53;9.45;;;6.88;;
73168;SDS011;61379;59.732;30.468;2023-04-28T11:28:21;7.07;;;6.53;;
73168;SDS011;61379;59.732;30.468;2023-04-28T11:30:47;7.40;;;6.70;;
73168;SDS011;61379;59.732;30.468;2023-04-28T11:33:16;7.80;;;6.57;;
73168;SDS011;61379;59.732;30.468;2023-04-28T11:35:43;8.48;;;6.72;;
73168;SDS011;61379;59.732;30.468;2023-04-28T11:38:09;7.13;;;6.63;;
73168;SDS011;61379;59.732;30.468;2023-04-28T11:40:36;7.43;;;6.22;;
73168;SDS011;61379;59.732;30.468;2023-04-28T11:43:03;6.93;;;6.32;;
73168;SDS011;61379;59.732;30.468;2023-04-28T11:45:31;6.90;;;6.07;;
73168;SDS011;61379;59.732;30.468;2023-04-28T11:47:57;8.02;;;6.32;;
73168;SDS011;61379;59.732;30.468;2023-04-28T11:50:37;6.35;;;5.85;;
73168;SDS011;61379;59.732;30.468;2023-04-28T11:53:04;6.57;;;6.03;;
73168;SDS011;61379;59.732;30.468;2023-04-28T11:55:31;7.35;;;6.70;;
73168;SDS011;61379;59.732;30.468;2023-04-28T12:00:39;6.57;;;5.97;;
73168;SDS011;61379;59.732;30.468;2023-04-28T12:03:06;6.80;;;6.00;;
73168;SDS011;61379;59.732;30.468;2023-04-28T12:05:33;7.78;;;7.28;;
73168;SDS011;61379;59.732;30.468;2023-04-28T12:08:03;8.02;;;7.25;;
73168;SDS011;61379;59.732;30.468;2023-04-28T12:10:30;7.78;;;6.93;;
73168;SDS011;61379;59.732;30.468;2023-04-28T12:12:56;7.15;;;6.50;;
73168;SDS011;61379;59.732;30.468;2023-04-28T12:15:38;7.50;;;6.88;;
73168;SDS011;61379;59.732;30.468;2023-04-28T12:18:08;6.78;;;6.28;;
73168;SDS011;61379;59.732;30.468;2023-04-28T12:20:35;7.00;;;6.50;;
73168;SDS011;61379;59.732;30.468;2023-04-28T12:23:04;6.82;;;6.20;;
73168;SDS011;61379;59.732;30.468;2023-04-28T12:25:32;9.07;;;6.65;;
73168;SDS011;61379;59.732;30.468;2023-04-28T12:28:00;7.55;;;6.85;;
73168;SDS011;61379;59.732;30.468;2023-04-28T12:30:28;8.48;;;7.45;;
73168;SDS011;61379;59.732;30.468;2023-04-28T12:32:55;8.23;;;6.55;;
73168;SDS011;61379;59.732;30.468;2023-04-28T12:35:22;8.95;;;7.78;;
73168;SDS011;61379;59.732;30.468;2023-04-28T12:37:49;8.77;;;7.10;;
73168;SDS011;61379;59.732;30.468;2023-04-28T12:40:18;8.10;;;7.53;;
73168;SDS011;61379;59.732;30.468;2023-04-28T12:42:45;7.20;;;5.95;;
73168;SDS011;61379;59.732;30.468;2023-04-28T12:45:12;8.77;;;6.03;;
73168;SDS011;61379;59.732;30.468;2023-04-28T12:47:41;7.78;;;6.10;;
73168;SDS011;61379;59.732;30.468;2023-04-28T12:50:08;11.40;;;6.82;;
73168;SDS011;61379;59.732;30.468;2023-04-28T12:52:34;7.68;;;7.05;;
73168;SDS011;61379;59.732;30.468;2023-04-28T12:55:02;7.82;;;5.75;;
73168;SDS011;61379;59.732;30.468;2023-04-28T12:57:33;7.20;;;6.10;;
73168;SDS011;61379;59.732;30.468;2023-04-28T13:02:28;6.10;;;5.63;;
73168;SDS011;61379;59.732;30.468;2023-04-28T13:04:55;6.20;;;5.60;;
73168;SDS011;61379;59.732;30.468;2023-04-28T13:07:22;6.22;;;5.28;;
73168;SDS011;61379;59.732;30.468;2023-04-28T13:09:49;7.18;;;6.00;;
73168;SDS011;61379;59.732;30.468;2023-04-28T13:12:15;10.02;;;6.70;;
73168;SDS011;61379;59.732;30.468;2023-04-28T13:14:43;5.75;;;5.22;;
73168;SDS011;61379;59.732;30.468;2023-04-28T13:17:10;8.07;;;6.68;;
73168;SDS011;61379;59.732;30.468;2023-04-28T13:19:38;6.65;;;6.00;;
73168;SDS011;61379;59.732;30.468;2023-04-28T13:22:05;6.60;;;5.70;;
73168;SDS011;61379;59.732;30.468;2023-04-28T13:24:33;6.72;;;6.03;;
73168;SDS011;61379;59.732;30.468;2023-04-28T13:27:00;7.38;;;5.95;;
73168;SDS011;61379;59.732;30.468;2023-04-28T13:29:28;8.43;;;7.70;;
73168;SDS011;61379;59.732;30.468;2023-04-28T13:31:56;5.63;;;5.13;;
73168;SDS011;61379;59.732;30.468;2023-04-28T13:34:23;5.97;;;5.38;;
73168;SDS011;61379;59.732;30.468;2023-04-28T13:36:50;6.18;;;5.68;;
73168;SDS011;61379;59.732;30.468;2023-04-28T13:39:18;6.40;;;5.82;;
73168;SDS011;61379;59.732;30.468;2023-04-28T13:41:46;6.93;;;6.32;;
73168;SDS011;61379;59.732;30.468;2023-04-28T13:44:13;8.00;;;7.20;;
73168;SDS011;61379;59.732;30.468;2023-04-28T13:46:39;7.70;;;6.93;;
73168;SDS011;61379;59.732;30.468;2023-04-28T13:49:08;8.27;;;6.85;;
73168;SDS011;61379;59.732;30.468;2023-04-28T13:51:35;7.00;;;6.30;;
73168;SDS011;61379;59.732;30.468;2023-04-28T13:54:01;6.47;;;5.80;;
73168;SDS011;61379;59.732;30.468;2023-04-28T13:56:29;7.20;;;6.53;;
73168;SDS011;61379;59.732;30.468;2023-04-28T13:58:56;6.60;;;6.05;;
73168;SDS011;61379;59.732;30.468;2023-04-28T14:01:23;7.05;;;6.13;;
73168;SDS011;61379;59.732;30.468;2023-04-28T14:03:50;7.13;;;6.53;;
73168;SDS011;61379;59.732;30.468;2023-04-28T14:06:18;9.18;;;7.75;;
73168;SDS011;61379;59.732;30.468;2023-04-28T14:08:45;6.82;;;6.20;;
73168;SDS011;61379;59.732;30.468;2023-04-28T14:11:12;11.32;;;9.68;;
73168;SDS011;61379;59.732;30.468;2023-04-28T14:13:39;9.13;;;7.57;;
73168;SDS011;61379;59.732;30.468;2023-04-28T14:16:06;10.00;;;7.50;;
73168;SDS011;61379;59.732;30.468;2023-04-28T14:18:33;11.40;;;7.95;;
73168;SDS011;61379;59.732;30.468;2023-04-28T14:21:00;9.60;;;8.65;;
73168;SDS011;61379;59.732;30.468;2023-04-28T14:23:33;10.18;;;7.53;;
73168;SDS011;61379;59.732;30.468;2023-04-28T14:26:00;8.93;;;7.20;;
73168;SDS011;61379;59.732;30.468;2023-04-28T14:28:27;7.65;;;6.97;;
73168;SDS011;61379;59.732;30.468;2023-04-28T14:30:54;7.47;;;6.78;;
73168;SDS011;61379;59.732;30.468;2023-04-28T14:33:21;11.25;;;6.72;;
73168;SDS011;61379;59.732;30.468;2023-04-28T14:35:48;7.35;;;6.70;;
73168;SDS011;61379;59.732;30.468;2023-04-28T14:38:15;7.50;;;6.88;;
73168;SDS011;61379;59.732;30.468;2023-04-28T14:40:43;7.25;;;6.22;;
73168;SDS011;61379;59.732;30.468;2023-04-28T14:43:10;6.93;;;6.32;;
73168;SDS011;61379;59.732;30.468;2023-04-28T14:45:38;8.80;;;6.53;;
73168;SDS011;61379;59.732;30.468;2023-04-28T14:48:04;7.20;;;6.50;;
73168;SDS011;61379;59.732;30.468;2023-04-28T14:50:34;7.85;;;6.97;;
73168;SDS011;61379;59.732;30.468;2023-04-28T14:53:01;10.27;;;6.93;;
73168;SDS011;61379;59.732;30.468;2023-04-28T14:55:31;6.75;;;6.15;;
73168;SDS011;61379;59.732;30.468;2023-04-28T14:57:59;9.75;;;6.45;;
73168;SDS011;61379;59.732;30.468;2023-04-28T15:00:26;8.80;;;6.20;;
73168;SDS011;61379;59.732;30.468;2023-04-28T15:02:52;10.63;;;6.57;;
73168;SDS011;61379;59.732;30.468;2023-04-28T15:05:19;6.65;;;6.07;;